KFDY

Findlay Airport

Findlay, Ohio, USA
METAR KFDY 141653Z AUTO 17004KT 10SM OVC045 09/06 A3016 RMK AO2 RAE31 SLP212 P0000 T00890056
Observed Flight Rules
Dec-14 @ 16:53 UTC (41 minutes ago) Visual Flight Rules
Wind Visibility Clouds
170° at 4 knots 10 miles
  • Overcast at 4,500' AGL
Temperatures Readings Precipitation
Current 9°C / 48°F
Dewpoint 6°C / 43°F
Humidity 82%
Altimeter 30.16" Hg
Pressure 1021.2 hPa
Elevation 247
Current Rain 0.005
METAR KFDY 141653Z AUTO 17004KT 10SM OVC045 09/06 A3016 RMK AO2 RAE31 SLP212 P0000 T00890056
Observed Flight Rules
Dec-14 @ 16:53 UTC
(41 minutes ago)
VFR
Wind Visibility
170° at 4 knots 10 miles
Clouds
  • Overcast at 4,500' AGL
Temperature Dewpoint
9°C / 48°F 6°C / 43°F
Humidity Altimeter Pressure
82% 30.16" Hg 1021.2 hPa
Current Rain
0.005